Time;durP1;ratioP1;P1;durP2;ratioP2;P2;SDS_P1;SDS_P2;PMS_P1;PMS_P2;Temp;Humidity;BMP_temperature;BMP_pressure;BME280_temperature;BME280_humidity;BME280_pressure;Samples;Min_cycle;Max_cycle;Signal;HPM_P1;HPM_P2
2022/09/01 00:01:38;;;;;;;;;;;20.20;99.00;;;;;;4998639;28;19928;-84
2022/09/01 00:04:04;;;;;;;;;;;20.20;99.10;;;;;;4986384;28;20303;-85
2022/09/01 00:06:31;;;;;;;;;;;20.20;99.20;;;;;;4992706;28;19944;-84
2022/09/01 00:08:58;;;;;;;;;;;20.10;99.40;;;;;;5001508;28;20432;-83
2022/09/01 00:11:24;;;;;;;;;;;20.10;99.90;;;;;;4996854;28;20007;-84
2022/09/01 00:13:50;;;;;;;;;;;20.00;99.90;;;;;;4994432;28;19924;-83
2022/09/01 00:16:17;;;;;;;;;;;19.80;99.90;;;;;;5001491;28;20684;-84
2022/09/01 00:18:45;;;;;;;;;;;19.70;99.90;;;;;;5002560;28;19924;-84
2022/09/01 00:21:12;;;;;;;;;;;19.70;99.90;;;;;;4991561;28;19918;-84
2022/09/01 00:23:37;;;;;;;;;;;19.70;99.90;;;;;;4991801;28;19930;-84
2022/09/01 00:26:03;;;;;;;;;;;19.60;99.90;;;;;;4989916;28;20409;-84
2022/09/01 00:28:31;;;;;;;;;;;19.60;99.90;;;;;;4998958;28;19917;-83
2022/09/01 00:30:57;;;;;;;;;;;19.50;99.90;;;;;;5000018;28;19921;-84
2022/09/01 00:33:23;;;;;;;;;;;19.40;99.90;;;;;;4999394;28;19918;-83
2022/09/01 00:35:48;;;;;;;;;;;19.40;99.90;;;;;;5015546;28;19921;-84
2022/09/01 00:38:14;;;;;;;;;;;19.40;99.90;;;;;;4988585;28;20031;-84
2022/09/01 00:40:39;;;;;;;;;;;19.40;99.90;;;;;;4998712;28;20012;-83
2022/09/01 00:43:16;;;;;;;;;;;19.40;99.90;;;;;;4985917;28;19933;-83
2022/09/01 00:45:42;;;;;;;;;;;19.40;99.90;;;;;;4993919;28;19957;-84
2022/09/01 00:48:08;;;;;;;;;;;19.40;99.90;;;;;;4995367;28;19976;-83
2022/09/01 00:50:35;;;;;;;;;;;19.40;99.90;;;;;;4993359;28;20397;-84
2022/09/01 00:53:01;;;;;;;;;;;19.40;99.90;;;;;;5000338;28;20334;-84
2022/09/01 00:55:30;;;;;;;;;;;19.40;99.90;;;;;;4993145;28;20291;-83
2022/09/01 00:57:57;;;;;;;;;;;19.30;99.90;;;;;;5000904;28;19918;-83
2022/09/01 01:00:28;;;;;;;;;;;19.40;99.90;;;;;;5003742;28;19919;-84
2022/09/01 01:02:57;;;;;;;;;;;19.30;99.90;;;;;;5002142;28;19959;-84
2022/09/01 01:05:26;;;;;;;;;;;19.30;99.90;;;;;;5002991;28;19913;-84
2022/09/01 01:07:53;;;;;;;;;;;19.40;99.90;;;;;;4988051;28;19913;-83
2022/09/01 01:10:21;;;;;;;;;;;19.40;99.90;;;;;;4984498;28;20402;-84
2022/09/01 01:12:48;;;;;;;;;;;19.30;99.90;;;;;;4983407;28;19917;-84
2022/09/01 01:15:14;;;;;;;;;;;19.20;99.90;;;;;;4984553;28;19914;-84
2022/09/01 01:17:39;;;;;;;;;;;19.20;99.90;;;;;;4984268;28;19918;-84
2022/09/01 01:23:07;;;;;;;;;;;19.40;99.90;;;;;;4993236;28;19933;-84
2022/09/01 01:25:43;;;;;;;;;;;19.40;99.90;;;;;;4997659;28;19924;-84
2022/09/01 01:28:14;;;;;;;;;;;19.30;99.90;;;;;;4996454;28;19917;-84
2022/09/01 01:30:42;;;;;;;;;;;19.50;99.90;;;;;;4999728;28;19918;-84
2022/09/01 01:33:07;;;;;;;;;;;19.50;99.90;;;;;;5000962;28;20410;-84
2022/09/01 01:35:33;;;;;;;;;;;19.50;99.90;;;;;;5002471;28;20048;-84
2022/09/01 01:38:00;;;;;;;;;;;19.50;99.90;;;;;;4995492;28;19917;-85
2022/09/01 01:40:27;;;;;;;;;;;19.40;99.90;;;;;;5000593;28;19925;-84
2022/09/01 01:42:53;;;;;;;;;;;19.30;99.90;;;;;;4998802;28;20513;-84
2022/09/01 01:45:19;;;;;;;;;;;19.30;99.90;;;;;;4994974;28;20012;-84
2022/09/01 01:47:51;;;;;;;;;;;19.30;99.90;;;;;;4998294;28;19956;-84
2022/09/01 01:50:22;;;;;;;;;;;19.30;99.90;;;;;;4996647;28;19917;-84
2022/09/01 01:52:47;;;;;;;;;;;19.30;99.90;;;;;;4998982;28;20059;-85
2022/09/01 01:55:18;;;;;;;;;;;19.20;99.90;;;;;;4995579;28;20011;-84
2022/09/01 01:57:48;;;;;;;;;;;19.10;99.90;;;;;;4996432;28;19940;-84
2022/09/01 02:00:18;;;;;;;;;;;19.00;99.90;;;;;;5002268;28;19961;-84
2022/09/01 02:02:51;;;;;;;;;;;19.00;99.90;;;;;;4991301;28;19933;-83
2022/09/01 02:05:24;;;;;;;;;;;18.90;99.90;;;;;;4998965;28;19935;-84
2022/09/01 02:07:54;;;;;;;;;;;19.00;99.90;;;;;;4995080;28;19917;-84
2022/09/01 02:10:24;;;;;;;;;;;19.00;99.90;;;;;;4993845;28;19922;-84
2022/09/01 02:12:49;;;;;;;;;;;19.00;99.90;;;;;;5000175;28;20021;-84
2022/09/01 02:15:15;;;;;;;;;;;18.90;99.90;;;;;;4997268;28;20004;-84
2022/09/01 02:17:42;;;;;;;;;;;18.80;99.90;;;;;;4996224;28;19975;-84
2022/09/01 02:20:08;;;;;;;;;;;18.90;99.90;;;;;;5001238;28;19937;-84
2022/09/01 02:22:36;;;;;;;;;;;18.80;99.90;;;;;;5000054;28;19964;-84
2022/09/01 02:25:05;;;;;;;;;;;18.80;99.90;;;;;;5001984;28;19948;-84
2022/09/01 02:27:32;;;;;;;;;;;18.70;99.90;;;;;;4995904;28;20677;-84
2022/09/01 02:29:59;;;;;;;;;;;18.70;99.90;;;;;;4998055;28;19918;-84
2022/09/01 02:32:24;;;;;;;;;;;18.80;99.90;;;;;;5000335;28;19963;-84
2022/09/01 02:34:52;;;;;;;;;;;18.80;99.90;;;;;;4997761;28;19921;-84
2022/09/01 02:37:24;;;;;;;;;;;18.70;99.90;;;;;;5002225;28;19917;-84
2022/09/01 02:39:56;;;;;;;;;;;18.80;99.90;;;;;;4994921;28;19918;-84
2022/09/01 02:42:25;;;;;;;;;;;18.80;99.90;;;;;;4998859;28;19917;-84
2022/09/01 02:44:51;;;;;;;;;;;18.70;99.90;;;;;;4997323;28;19917;-83
2022/09/01 02:47:17;;;;;;;;;;;18.70;99.90;;;;;;4997243;28;20294;-83
2022/09/01 02:49:43;;;;;;;;;;;18.70;99.90;;;;;;4992418;28;19917;-84
2022/09/01 02:52:09;;;;;;;;;;;18.70;99.90;;;;;;4999278;28;20358;-84
2022/09/01 02:54:35;;;;;;;;;;;18.70;99.90;;;;;;4989483;28;20049;-84
2022/09/01 02:57:02;;;;;;;;;;;18.70;99.90;;;;;;5000292;28;19918;-84
2022/09/01 02:59:29;;;;;;;;;;;18.80;99.90;;;;;;5004514;28;19953;-84
2022/09/01 03:01:56;;;;;;;;;;;18.60;99.90;;;;;;4998693;28;19917;-84
2022/09/01 03:04:22;;;;;;;;;;;18.70;99.90;;;;;;4992361;28;19933;-84
2022/09/01 03:06:49;;;;;;;;;;;18.60;99.90;;;;;;5003443;28;19952;-84
2022/09/01 03:09:16;;;;;;;;;;;18.60;99.90;;;;;;4986963;28;19929;-83
2022/09/01 03:11:45;;;;;;;;;;;18.40;99.90;;;;;;4995877;28;19972;-84
2022/09/01 03:14:11;;;;;;;;;;;18.50;99.90;;;;;;4986407;28;19918;-84
2022/09/01 03:16:38;;;;;;;;;;;18.40;99.90;;;;;;4994544;28;19918;-84
2022/09/01 03:19:07;;;;;;;;;;;18.30;99.90;;;;;;4997389;28;19929;-83
2022/09/01 03:21:33;;;;;;;;;;;18.30;99.90;;;;;;4997614;28;20359;-84
2022/09/01 03:24:02;;;;;;;;;;;18.30;99.90;;;;;;4991587;28;20048;-84
2022/09/01 03:26:28;;;;;;;;;;;18.30;99.90;;;;;;4993049;28;19917;-84
2022/09/01 03:28:53;;;;;;;;;;;18.40;99.90;;;;;;4990543;28;19924;-83
2022/09/01 03:31:19;;;;;;;;;;;18.50;99.90;;;;;;4990687;28;20017;-84
2022/09/01 03:33:45;;;;;;;;;;;18.40;99.90;;;;;;4988591;28;20300;-83
2022/09/01 03:36:17;;;;;;;;;;;18.40;99.90;;;;;;5002515;28;20302;-84
2022/09/01 03:38:50;;;;;;;;;;;18.30;99.90;;;;;;4996608;28;19918;-83
2022/09/01 03:41:17;;;;;;;;;;;18.40;99.90;;;;;;4995152;28;19921;-84
2022/09/01 03:43:43;;;;;;;;;;;18.20;99.90;;;;;;4995756;28;19925;-83
2022/09/01 03:46:14;;;;;;;;;;;18.20;99.90;;;;;;4996728;28;19964;-84
2022/09/01 03:48:40;;;;;;;;;;;18.20;99.90;;;;;;5004033;28;19928;-84
2022/09/01 03:51:06;;;;;;;;;;;18.10;99.90;;;;;;5003065;28;19921;-83
2022/09/01 03:53:35;;;;;;;;;;;18.00;99.90;;;;;;4997448;28;19972;-84
2022/09/01 03:56:03;;;;;;;;;;;18.10;99.90;;;;;;4988499;28;19929;-84
2022/09/01 03:58:28;;;;;;;;;;;18.00;99.90;;;;;;4992745;28;19917;-84
2022/09/01 04:00:55;;;;;;;;;;;18.00;99.90;;;;;;4995856;28;20416;-84
2022/09/01 04:03:22;;;;;;;;;;;18.00;99.90;;;;;;4990394;28;19925;-83
2022/09/01 04:05:49;;;;;;;;;;;18.00;99.90;;;;;;4985625;28;19922;-84
2022/09/01 04:08:16;;;;;;;;;;;17.90;99.90;;;;;;4985338;28;19941;-83
2022/09/01 04:10:48;;;;;;;;;;;17.90;99.90;;;;;;4991324;28;20395;-84
2022/09/01 04:13:25;;;;;;;;;;;17.90;99.90;;;;;;4997655;28;19917;-84
2022/09/01 04:15:51;;;;;;;;;;;17.90;99.90;;;;;;4995600;28;19971;-83
2022/09/01 04:18:20;;;;;;;;;;;17.70;99.90;;;;;;5004064;28;19917;-84
2022/09/01 04:20:47;;;;;;;;;;;17.60;99.90;;;;;;4999296;28;20332;-84
2022/09/01 04:23:25;;;;;;;;;;;17.60;99.90;;;;;;4995534;28;20008;-83
2022/09/01 04:26:07;;;;;;;;;;;17.50;99.90;;;;;;5002426;28;19917;-84
2022/09/01 04:28:36;;;;;;;;;;;17.40;99.90;;;;;;4996959;28;20409;-84
2022/09/01 04:31:04;;;;;;;;;;;17.40;99.90;;;;;;4999564;28;19992;-83
2022/09/01 04:33:39;;;;;;;;;;;17.40;99.90;;;;;;4993112;28;20386;-84
2022/09/01 04:36:06;;;;;;;;;;;17.40;99.90;;;;;;5000446;28;19921;-84
2022/09/01 04:38:34;;;;;;;;;;;17.30;99.90;;;;;;5001179;28;19918;-84
2022/09/01 04:41:06;;;;;;;;;;;17.30;99.90;;;;;;4992754;28;20390;-83
2022/09/01 04:43:32;;;;;;;;;;;17.30;99.90;;;;;;5002367;28;19925;-83
2022/09/01 04:45:57;;;;;;;;;;;17.30;99.90;;;;;;4994625;28;19925;-84
2022/09/01 04:48:24;;;;;;;;;;;17.30;99.90;;;;;;5000827;28;19917;-84
2022/09/01 04:50:51;;;;;;;;;;;17.30;99.90;;;;;;4985514;28;19920;-84
2022/09/01 04:53:17;;;;;;;;;;;17.20;99.90;;;;;;4986958;28;20661;-84
2022/09/01 04:55:43;;;;;;;;;;;17.30;99.90;;;;;;5000025;28;20012;-84
2022/09/01 04:58:12;;;;;;;;;;;17.30;99.90;;;;;;4995137;28;20016;-85
2022/09/01 05:00:39;;;;;;;;;;;17.50;99.90;;;;;;4994626;28;19945;-85
2022/09/01 05:03:05;;;;;;;;;;;17.50;99.90;;;;;;4994806;28;19926;-86
2022/09/01 05:05:38;;;;;;;;;;;17.50;99.90;;;;;;4992404;28;20731;-85
2022/09/01 05:08:04;;;;;;;;;;;17.60;99.90;;;;;;5001677;28;19918;-85
2022/09/01 05:10:30;;;;;;;;;;;17.50;99.90;;;;;;4989004;28;19922;-85
2022/09/01 05:12:56;;;;;;;;;;;17.40;99.90;;;;;;4985762;28;19925;-85
2022/09/01 05:15:22;;;;;;;;;;;17.30;99.90;;;;;;5001218;28;20361;-85
2022/09/01 05:17:48;;;;;;;;;;;17.30;99.90;;;;;;4995445;28;19949;-84
2022/09/01 05:20:13;;;;;;;;;;;17.30;99.90;;;;;;5001537;28;20801;-86
2022/09/01 05:22:39;;;;;;;;;;;17.50;99.90;;;;;;5002829;28;20044;-85
2022/09/01 05:25:12;;;;;;;;;;;17.60;99.90;;;;;;4995080;28;19921;-86
2022/09/01 05:27:43;;;;;;;;;;;17.60;99.90;;;;;;5001786;28;19944;-84
2022/09/01 05:30:09;;;;;;;;;;;17.80;99.90;;;;;;4994699;28;19917;-83
2022/09/01 05:32:36;;;;;;;;;;;18.00;99.90;;;;;;4985540;28;19922;-82
2022/09/01 05:35:07;;;;;;;;;;;18.10;99.90;;;;;;4992821;28;19924;-83
2022/09/01 05:37:38;;;;;;;;;;;18.40;99.90;;;;;;5003145;28;20413;-82
2022/09/01 05:40:14;;;;;;;;;;;18.40;99.90;;;;;;4995290;28;19929;-82
2022/09/01 05:42:41;;;;;;;;;;;18.40;99.90;;;;;;4992420;28;19956;-83
2022/09/01 05:45:09;;;;;;;;;;;18.60;99.90;;;;;;4984555;28;19918;-82
2022/09/01 05:47:35;;;;;;;;;;;18.80;99.90;;;;;;4983806;28;20349;-83
2022/09/01 05:50:02;;;;;;;;;;;19.00;99.90;;;;;;4984689;28;19921;-83
2022/09/01 05:52:30;;;;;;;;;;;19.40;99.90;;;;;;4994363;28;19917;-82
2022/09/01 05:54:58;;;;;;;;;;;19.80;99.90;;;;;;4994476;28;20207;-83
2022/09/01 05:57:24;;;;;;;;;;;20.10;99.90;;;;;;5003133;28;20708;-83
2022/09/01 05:59:52;;;;;;;;;;;20.10;99.90;;;;;;5004949;28;19929;-83
2022/09/01 06:02:21;;;;;;;;;;;20.40;99.90;;;;;;4996248;28;20008;-83
2022/09/01 06:04:47;;;;;;;;;;;20.00;99.90;;;;;;5006981;28;20317;-83
2022/09/01 06:07:14;;;;;;;;;;;20.20;99.90;;;;;;5006210;28;20387;-79
2022/09/01 06:09:41;;;;;;;;;;;20.90;99.90;;;;;;4994696;28;19939;-81
2022/09/01 06:12:16;;;;;;;;;;;20.50;99.90;;;;;;4996269;28;19921;-82
2022/09/01 06:14:42;;;;;;;;;;;20.40;99.90;;;;;;4997263;28;19967;-82
2022/09/01 06:17:09;;;;;;;;;;;20.50;99.90;;;;;;5020801;28;20503;-81
2022/09/01 06:19:35;;;;;;;;;;;20.30;99.90;;;;;;5014415;28;19932;-82
2022/09/01 06:22:01;;;;;;;;;;;20.60;99.90;;;;;;5018556;28;19917;-81
2022/09/01 06:24:27;;;;;;;;;;;21.40;99.90;;;;;;5024348;28;19976;-82
2022/09/01 06:26:53;;;;;;;;;;;22.20;99.20;;;;;;5014402;28;19941;-81
2022/09/01 06:29:19;;;;;;;;;;;22.90;97.50;;;;;;5003156;28;19983;-82
2022/09/01 06:31:50;;;;;;;;;;;23.00;96.10;;;;;;5005163;28;19921;-82
2022/09/01 06:34:17;;;;;;;;;;;23.50;95.10;;;;;;5019229;28;19928;-82
2022/09/01 06:36:43;;;;;;;;;;;22.60;96.10;;;;;;5025925;28;20378;-82
2022/09/01 06:39:18;;;;;;;;;;;21.60;99.70;;;;;;5014347;28;20013;-82
2022/09/01 06:41:48;;;;;;;;;;;22.20;99.30;;;;;;5006531;28;19953;-82
2022/09/01 06:44:14;;;;;;;;;;;21.20;99.70;;;;;;5005146;28;19944;-81
2022/09/01 06:46:39;;;;;;;;;;;20.10;99.90;;;;;;5002034;28;20383;-83
2022/09/01 06:49:10;;;;;;;;;;;20.10;99.90;;;;;;5016580;28;19921;-82
2022/09/01 06:51:36;;;;;;;;;;;20.30;99.90;;;;;;5013783;28;19924;-82
2022/09/01 06:54:01;;;;;;;;;;;20.60;99.90;;;;;;5024111;28;19935;-81
2022/09/01 06:56:30;;;;;;;;;;;20.80;99.90;;;;;;5022459;28;19925;-81
2022/09/01 06:58:56;;;;;;;;;;;20.20;99.90;;;;;;5023460;28;19917;-81
2022/09/01 07:01:22;;;;;;;;;;;20.40;99.90;;;;;;5023787;28;20646;-81
2022/09/01 07:03:52;;;;;;;;;;;20.10;99.90;;;;;;5019646;28;20008;-82
2022/09/01 07:06:22;;;;;;;;;;;19.70;99.90;;;;;;5012294;28;19963;-81
2022/09/01 07:08:48;;;;;;;;;;;19.80;99.90;;;;;;5019220;28;20011;-81
2022/09/01 07:11:22;;;;;;;;;;;19.70;99.90;;;;;;5020841;28;19913;-82
2022/09/01 07:13:49;;;;;;;;;;;20.30;99.90;;;;;;5024812;28;19913;-81
2022/09/01 07:16:17;;;;;;;;;;;20.00;99.90;;;;;;5018403;28;19925;-82
2022/09/01 07:18:42;;;;;;;;;;;19.50;99.90;;;;;;5018864;28;19918;-81
2022/09/01 07:21:08;;;;;;;;;;;20.00;99.90;;;;;;5019161;28;20139;-83
2022/09/01 07:23:33;;;;;;;;;;;19.80;99.90;;;;;;5020340;28;19936;-84
2022/09/01 07:25:59;;;;;;;;;;;20.30;99.90;;;;;;5022748;28;19917;-84
2022/09/01 07:28:28;;;;;;;;;;;20.30;99.90;;;;;;5025444;28;19917;-84
2022/09/01 07:30:55;;;;;;;;;;;20.30;99.90;;;;;;5025571;28;20002;-83
2022/09/01 07:33:22;;;;;;;;;;;20.40;99.90;;;;;;5025615;28;20417;-83
2022/09/01 07:35:48;;;;;;;;;;;20.40;99.90;;;;;;5025604;28;19920;-83
2022/09/01 07:38:14;;;;;;;;;;;20.10;99.90;;;;;;5024412;28;19924;-84
2022/09/01 07:40:41;;;;;;;;;;;20.40;99.90;;;;;;5022655;28;19921;-84
2022/09/01 07:43:13;;;;;;;;;;;20.40;99.90;;;;;;5022216;28;19929;-85
2022/09/01 07:45:42;;;;;;;;;;;20.40;99.90;;;;;;5021598;28;19913;-84
2022/09/01 07:48:08;;;;;;;;;;;20.50;99.90;;;;;;5022488;28;19913;-85
2022/09/01 07:50:35;;;;;;;;;;;20.60;99.90;;;;;;5023046;28;20059;-84
2022/09/01 07:53:01;;;;;;;;;;;20.60;99.90;;;;;;5021078;28;19913;-83
2022/09/01 07:55:27;;;;;;;;;;;20.30;99.90;;;;;;5022842;28;19975;-84
2022/09/01 07:57:53;;;;;;;;;;;20.80;99.90;;;;;;5022534;28;19947;-83
2022/09/01 08:00:20;;;;;;;;;;;20.90;99.90;;;;;;5020788;28;19917;-84
2022/09/01 08:02:46;;;;;;;;;;;20.80;99.90;;;;;;5018553;28;19929;-84
2022/09/01 08:05:14;;;;;;;;;;;21.10;99.90;;;;;;5021835;28;20031;-84
2022/09/01 08:07:41;;;;;;;;;;;21.20;99.90;;;;;;5020527;28;19960;-85
2022/09/01 08:10:07;;;;;;;;;;;21.20;99.90;;;;;;5022648;28;20440;-84
2022/09/01 08:12:33;;;;;;;;;;;20.80;99.90;;;;;;5023735;28;19956;-83
2022/09/01 08:15:00;;;;;;;;;;;20.50;99.90;;;;;;5023337;28;19917;-84
2022/09/01 08:17:26;;;;;;;;;;;20.30;99.90;;;;;;5023676;28;20028;-84
2022/09/01 08:19:52;;;;;;;;;;;21.00;99.90;;;;;;5011576;28;19913;-84
2022/09/01 08:22:22;;;;;;;;;;;21.00;99.90;;;;;;5004209;28;19921;-84
2022/09/01 08:24:47;;;;;;;;;;;21.40;99.90;;;;;;5020202;28;20310;-84
2022/09/01 08:27:13;;;;;;;;;;;22.90;99.90;;;;;;5024278;28;19924;-84
2022/09/01 08:29:38;;;;;;;;;;;23.60;99.90;;;;;;5024896;28;19952;-85
2022/09/01 08:32:04;;;;;;;;;;;24.60;99.20;;;;;;5024559;28;20728;-84
2022/09/01 08:34:31;;;;;;;;;;;27.90;92.80;;;;;;5039379;28;19953;-84
2022/09/01 08:36:57;;;;;;;;;;;27.70;89.70;;;;;;5024501;28;19920;-84
2022/09/01 08:39:22;;;;;;;;;;;28.00;86.20;;;;;;5016475;28;20306;-85
2022/09/01 08:41:57;;;;;;;;;;;27.00;89.50;;;;;;5003380;28;19913;-84
2022/09/01 08:44:36;;;;;;;;;;;27.50;87.40;;;;;;5002962;28;19921;-84
2022/09/01 08:47:04;;;;;;;;;;;27.50;87.30;;;;;;5004546;28;20374;-84
2022/09/01 08:49:30;;;;;;;;;;;27.40;85.60;;;;;;5002973;28;19914;-84
2022/09/01 08:52:07;;;;;;;;;;;28.90;81.40;;;;;;5004388;28;19924;-84
2022/09/01 08:54:44;;;;;;;;;;;28.90;77.80;;;;;;5004335;28;20385;-84
2022/09/01 08:57:13;;;;;;;;;;;28.20;82.30;;;;;;5020330;28;19917;-84
2022/09/01 08:59:39;;;;;;;;;;;30.30;78.20;;;;;;5021995;28;20284;-85
2022/09/01 09:02:23;;;;;;;;;;;27.60;81.10;;;;;;5024072;28;19920;-84
2022/09/01 09:05:17;;;;;;;;;;;26.00;85.60;;;;;;5023260;28;19921;-84
2022/09/01 09:07:57;;;;;;;;;;;26.60;85.80;;;;;;5023600;28;20301;-84
2022/09/01 09:10:22;;;;;;;;;;;27.40;84.10;;;;;;5024046;28;19916;-84
2022/09/01 09:12:51;;;;;;;;;;;26.50;84.10;;;;;;5023970;28;20502;-84
2022/09/01 09:15:46;;;;;;;;;;;27.90;85.30;;;;;;5024244;28;19961;-85
2022/09/01 09:18:30;;;;;;;;;;;29.10;78.30;;;;;;5014387;28;19975;-83
2022/09/01 09:21:03;;;;;;;;;;;28.10;77.80;;;;;;5003915;28;20386;-84
2022/09/01 09:23:32;;;;;;;;;;;28.70;75.60;;;;;;5004349;28;19932;-84
2022/09/01 09:25:57;;;;;;;;;;;26.70;81.30;;;;;;5004603;28;20349;-84
2022/09/01 09:28:23;;;;;;;;;;;26.80;82.10;;;;;;5004039;28;19914;-84
2022/09/01 09:30:48;;;;;;;;;;;25.80;85.40;;;;;;5004227;28;19913;-84
2022/09/01 09:33:33;;;;;;;;;;;25.90;86.80;;;;;;5003819;28;20330;-84
2022/09/01 09:36:15;;;;;;;;;;;26.50;84.30;;;;;;5006632;28;19964;-84
2022/09/01 09:38:41;;;;;;;;;;;25.90;85.60;;;;;;5007913;28;19925;-85
2022/09/01 09:41:13;;;;;;;;;;;25.90;86.10;;;;;;5006771;28;19913;-84
2022/09/01 09:44:02;;;;;;;;;;;26.30;86.30;;;;;;5006590;28;19925;-84
2022/09/01 09:46:30;;;;;;;;;;;26.90;82.90;;;;;;5003542;28;19913;-84
2022/09/01 09:49:05;;;;;;;;;;;26.70;83.10;;;;;;5005516;28;20014;-84
2022/09/01 09:51:31;;;;;;;;;;;26.60;84.40;;;;;;5025468;28;19924;-84
2022/09/01 09:54:12;;;;;;;;;;;26.60;84.20;;;;;;5026446;28;19917;-84
2022/09/01 09:56:40;;;;;;;;;;;26.10;85.50;;;;;;5026196;28;20451;-85
2022/09/01 09:59:20;;;;;;;;;;;25.60;87.90;;;;;;5027944;28;19971;-84
2022/09/01 10:01:50;;;;;;;;;;;25.50;88.40;;;;;;5027281;28;19917;-83
2022/09/01 10:04:34;;;;;;;;;;;25.00;90.20;;;;;;5026910;28;19987;-84
2022/09/01 10:07:00;;;;;;;;;;;24.50;91.70;;;;;;5027271;28;19952;-84
2022/09/01 10:09:25;;;;;;;;;;;24.40;92.10;;;;;;5027848;28;19949;-84
2022/09/01 10:11:53;;;;;;;;;;;24.70;91.60;;;;;;5027377;28;19913;-84
2022/09/01 10:14:20;;;;;;;;;;;24.70;91.60;;;;;;5026516;28;19923;-84
2022/09/01 10:16:48;;;;;;;;;;;24.60;91.70;;;;;;5024922;28;19928;-85
2022/09/01 10:19:13;;;;;;;;;;;24.30;92.30;;;;;;5021799;28;19913;-84
2022/09/01 10:21:40;;;;;;;;;;;24.00;93.40;;;;;;5024704;28;19913;-84
2022/09/01 10:24:15;;;;;;;;;;;24.20;93.40;;;;;;5023779;28;20008;-84
2022/09/01 10:26:42;;;;;;;;;;;24.60;92.50;;;;;;5023993;28;19917;-84
2022/09/01 10:29:14;;;;;;;;;;;24.70;92.30;;;;;;5025125;28;19925;-84
2022/09/01 10:31:41;;;;;;;;;;;24.70;91.80;;;;;;5022813;28;19917;-84
2022/09/01 10:34:10;;;;;;;;;;;24.60;92.50;;;;;;5023400;28;20327;-84
2022/09/01 10:36:36;;;;;;;;;;;24.40;93.00;;;;;;5025059;28;19921;-85
2022/09/01 10:39:02;;;;;;;;;;;24.30;93.30;;;;;;5023794;28;19921;-84
2022/09/01 10:41:43;;;;;;;;;;;24.30;93.70;;;;;;5025262;28;19913;-84
2022/09/01 10:44:10;;;;;;;;;;;24.30;93.50;;;;;;5024920;28;19917;-83
2022/09/01 10:46:35;;;;;;;;;;;24.40;93.50;;;;;;5025269;28;20530;-84
2022/09/01 10:49:11;;;;;;;;;;;24.40;93.40;;;;;;5023546;28;19913;-85
2022/09/01 10:51:41;;;;;;;;;;;24.20;94.00;;;;;;5025074;28;19913;-85
2022/09/01 10:54:07;;;;;;;;;;;23.80;95.30;;;;;;5024940;28;20309;-83
2022/09/01 10:56:46;;;;;;;;;;;23.80;95.30;;;;;;5013300;28;19925;-87
2022/09/01 10:59:21;;;;;;;;;;;23.80;95.40;;;;;;5029729;28;20298;-86
2022/09/01 11:01:47;;;;;;;;;;;23.80;95.60;;;;;;5021205;28;19971;-87
2022/09/01 11:04:13;;;;;;;;;;;23.90;95.10;;;;;;5022391;28;19933;-85
2022/09/01 11:06:57;;;;;;;;;;;23.80;95.80;;;;;;5018420;28;19917;-84
2022/09/01 11:09:23;;;;;;;;;;;23.80;95.80;;;;;;5020681;28;20003;-83
2022/09/01 11:12:08;;;;;;;;;;;24.20;95.20;;;;;;5021907;28;20062;-83
2022/09/01 11:14:45;;;;;;;;;;;24.50;94.50;;;;;;5013594;28;20130;-83
2022/09/01 11:17:31;;;;;;;;;;;25.00;93.70;;;;;;5023472;28;19921;-83
2022/09/01 11:20:21;;;;;;;;;;;25.40;92.80;;;;;;4993173;28;20008;-84
2022/09/01 11:22:55;;;;;;;;;;;25.20;92.50;;;;;;5006019;28;19964;-83
2022/09/01 11:25:36;;;;;;;;;;;25.10;92.90;;;;;;5005981;28;20349;-84
2022/09/01 11:28:02;;;;;;;;;;;24.70;93.10;;;;;;5011013;28;19925;-84
2022/09/01 11:30:30;;;;;;;;;;;24.70;93.70;;;;;;5019107;28;19967;-84
2022/09/01 11:32:58;;;;;;;;;;;24.60;94.10;;;;;;5012880;28;19917;-83
2022/09/01 11:35:25;;;;;;;;;;;24.90;93.80;;;;;;5010181;28;19917;-83
2022/09/01 11:37:53;;;;;;;;;;;25.00;93.40;;;;;;5023206;28;19975;-83
2022/09/01 11:40:25;;;;;;;;;;;25.20;92.30;;;;;;5019146;28;19967;-83
2022/09/01 11:42:53;;;;;;;;;;;25.00;92.80;;;;;;5022096;28;19936;-84
2022/09/01 11:45:21;;;;;;;;;;;25.30;92.30;;;;;;5013260;28;20332;-82
2022/09/01 11:47:49;;;;;;;;;;;25.80;91.70;;;;;;5013153;28;19917;-84
2022/09/01 11:50:14;;;;;;;;;;;25.40;91.70;;;;;;5020399;28;20041;-83
2022/09/01 11:52:40;;;;;;;;;;;25.90;91.60;;;;;;5013327;28;20017;-82
2022/09/01 11:55:06;;;;;;;;;;;26.30;90.30;;;;;;5022902;28;19929;-83
2022/09/01 11:57:38;;;;;;;;;;;26.70;89.60;;;;;;5022049;28;20421;-83
2022/09/01 12:00:06;;;;;;;;;;;26.10;90.70;;;;;;5022606;28;19917;-83
2022/09/01 12:02:32;;;;;;;;;;;26.40;90.50;;;;;;5023567;28;19913;-83
2022/09/01 12:04:59;;;;;;;;;;;26.60;90.10;;;;;;5020672;28;19932;-84
2022/09/01 12:07:37;;;;;;;;;;;26.80;89.10;;;;;;5026109;28;20017;-84
2022/09/01 12:10:03;;;;;;;;;;;26.40;89.40;;;;;;5024723;28;19917;-83
2022/09/01 12:12:28;;;;;;;;;;;26.40;88.20;;;;;;5023013;28;19927;-83
2022/09/01 12:14:55;;;;;;;;;;;26.40;87.20;;;;;;5024048;28;19917;-82
2022/09/01 12:17:21;;;;;;;;;;;26.50;89.50;;;;;;5022291;28;19966;-83
2022/09/01 12:19:46;;;;;;;;;;;26.60;88.50;;;;;;5033657;28;19917;-84
2022/09/01 12:22:13;;;;;;;;;;;26.80;87.50;;;;;;5021064;28;19920;-83
2022/09/01 12:24:43;;;;;;;;;;;26.80;88.00;;;;;;5021860;28;20613;-83
2022/09/01 12:27:09;;;;;;;;;;;26.90;87.60;;;;;;5022877;28;20317;-83
2022/09/01 12:29:36;;;;;;;;;;;26.80;87.90;;;;;;5023241;28;20510;-83
2022/09/01 12:32:02;;;;;;;;;;;26.50;87.40;;;;;;5023533;28;20451;-84
2022/09/01 12:34:59;;;;;;;;;;;26.40;88.70;;;;;;5023276;28;19913;-84
2022/09/01 12:37:26;;;;;;;;;;;26.30;89.20;;;;;;5023330;28;19988;-83
2022/09/01 12:39:53;;;;;;;;;;;26.00;90.00;;;;;;5021568;28;20028;-83
2022/09/01 12:42:19;;;;;;;;;;;25.50;90.00;;;;;;5022781;28;20561;-83
2022/09/01 12:44:50;;;;;;;;;;;25.00;91.80;;;;;;5023148;28;19921;-83
2022/09/01 12:47:46;;;;;;;;;;;25.40;92.20;;;;;;5021395;28;20222;-83
2022/09/01 12:50:11;;;;;;;;;;;25.50;92.10;;;;;;5022812;28;20397;-83
2022/09/01 12:52:47;;;;;;;;;;;25.40;92.00;;;;;;5022820;28;19924;-83
2022/09/01 12:55:20;;;;;;;;;;;25.20;91.30;;;;;;5021180;28;19925;-83
2022/09/01 12:57:50;;;;;;;;;;;24.90;92.00;;;;;;5022975;28;19921;-84
2022/09/01 13:00:18;;;;;;;;;;;24.70;92.20;;;;;;5023238;28;20472;-84
2022/09/01 13:03:02;;;;;;;;;;;24.70;93.60;;;;;;5023869;28;19917;-83
2022/09/01 13:05:32;;;;;;;;;;;24.70;93.10;;;;;;5024071;28;19913;-83
2022/09/01 13:07:59;;;;;;;;;;;24.70;93.80;;;;;;5023403;28;19913;-83
2022/09/01 13:10:29;;;;;;;;;;;24.60;93.10;;;;;;5023436;28;19967;-83
2022/09/01 13:12:56;;;;;;;;;;;24.50;94.00;;;;;;5024003;28;20298;-83
2022/09/01 13:15:24;;;;;;;;;;;24.50;94.10;;;;;;5023072;28;19920;-83
2022/09/01 13:17:50;;;;;;;;;;;24.40;94.30;;;;;;5022261;28;20098;-84
2022/09/01 13:20:16;;;;;;;;;;;24.60;94.10;;;;;;5009338;28;19949;-83
2022/09/01 13:22:43;;;;;;;;;;;24.50;94.50;;;;;;5004000;28;19913;-84
2022/09/01 13:25:13;;;;;;;;;;;24.50;93.60;;;;;;5003562;28;20004;-84
2022/09/01 13:27:43;;;;;;;;;;;24.40;94.00;;;;;;5003750;28;19956;-84
2022/09/01 13:30:10;;;;;;;;;;;24.70;94.80;;;;;;5013647;28;19975;-83
2022/09/01 13:32:35;;;;;;;;;;;24.70;93.60;;;;;;5023783;28;19944;-83
2022/09/01 13:35:01;;;;;;;;;;;24.90;93.30;;;;;;5023853;28;19967;-83
2022/09/01 13:37:27;;;;;;;;;;;24.80;92.70;;;;;;5022045;28;19917;-85
2022/09/01 13:39:53;;;;;;;;;;;24.90;93.90;;;;;;5022374;28;19917;-84
2022/09/01 13:42:18;;;;;;;;;;;25.00;93.30;;;;;;5023127;28;19988;-83
2022/09/01 13:44:44;;;;;;;;;;;24.90;93.40;;;;;;5019634;28;20043;-85
2022/09/01 13:47:10;;;;;;;;;;;24.80;93.10;;;;;;5004459;28;20692;-86
2022/09/01 13:49:35;;;;;;;;;;;24.60;93.10;;;;;;5003653;28;19914;-85
2022/09/01 13:52:01;;;;;;;;;;;24.80;94.00;;;;;;5003229;28;19917;-85
2022/09/01 13:54:27;;;;;;;;;;;25.10;93.50;;;;;;5010650;28;19932;-85
2022/09/01 13:56:52;;;;;;;;;;;24.90;93.10;;;;;;5019093;28;19921;-85
2022/09/01 13:59:18;;;;;;;;;;;24.60;92.80;;;;;;5017999;28;19917;-85
2022/09/01 14:01:45;;;;;;;;;;;24.70;93.10;;;;;;5021949;28;20405;-86
2022/09/01 14:04:11;;;;;;;;;;;24.70;93.30;;;;;;5014388;28;19978;-85
2022/09/01 14:06:43;;;;;;;;;;;24.60;93.10;;;;;;5012298;28;19924;-86
2022/09/01 14:09:09;;;;;;;;;;;24.80;93.10;;;;;;5021831;28;20011;-86
2022/09/01 14:11:35;;;;;;;;;;;24.70;93.10;;;;;;4998756;28;19924;-86
2022/09/01 14:14:01;;;;;;;;;;;24.60;93.20;;;;;;5021883;28;19914;-85
2022/09/01 14:16:26;;;;;;;;;;;24.60;93.00;;;;;;5023366;28;19987;-85
2022/09/01 14:18:52;;;;;;;;;;;24.60;92.80;;;;;;5004868;28;19921;-85
2022/09/01 14:21:18;;;;;;;;;;;24.40;92.30;;;;;;5006951;28;19959;-85
2022/09/01 14:23:45;;;;;;;;;;;24.30;92.40;;;;;;5006524;28;19921;-85
2022/09/01 14:26:11;;;;;;;;;;;24.60;92.80;;;;;;5007126;28;19940;-85
2022/09/01 14:28:38;;;;;;;;;;;24.70;92.30;;;;;;5005680;28;19921;-85